This is the latest recevied weather packets stored in our database for station/object E22ZMG-1. If no packets are shown the sender has not sent any weather packets the latest 10 day(s).
| Time | Temp. | Humidity | Pressure | Rain* | Wind** | Luminosity | Snow |
|---|---|---|---|---|---|---|---|
| 1778030993 | 33.33° C | 54% | 976 hPa | - | - | 0 W/m² | - |
| 1778030368 | 32.78° C | 57% | 976 hPa | - | - | 0 W/m² | - |
| 1778029744 | 32.22° C | 58% | 976 hPa | - | - | 0 W/m² | - |
| 1778029119 | 32.22° C | 59% | 976 hPa | - | - | 0 W/m² | - |
| 1778028492 | 31.67° C | 61% | 975 hPa | - | - | 0 W/m² | - |
| 1778027867 | 30.56° C | 64% | 975 hPa | - | - | 0 W/m² | - |
| 1778027242 | 31.11° C | 62% | 975 hPa | - | - | 0 W/m² | - |
| 1778026615 | 31.67° C | 61% | 975 hPa | - | - | 0 W/m² | - |
| 1778025990 | 31.11° C | 62% | 975 hPa | - | - | 0 W/m² | - |
| 1778025365 | 30.56° C | 65% | 975 hPa | - | - | 0 W/m² | - |
| 1778024739 | 30° C | 65% | 975 hPa | - | - | 0 W/m² | - |
| 1778024113 | 31.11° C | 62% | 975 hPa | - | - | 0 W/m² | - |
| 1778023488 | 31.11° C | 63% | 975 hPa | - | - | 0 W/m² | - |
| 1778022864 | 31.11° C | 62% | 975 hPa | - | - | 0 W/m² | - |
| 1778022238 | 30.56° C | 65% | 975 hPa | - | - | 0 W/m² | - |
| 1778021612 | 30.56° C | 64% | 975 hPa | - | - | 0 W/m² | - |
| 1778020986 | 30.56° C | 63% | 974 hPa | - | - | 0 W/m² | - |
| 1778019349 | 31.11° C | 63% | 974 hPa | - | - | 0 W/m² | - |
| 1778018722 | 30.56° C | 63% | 974 hPa | - | - | 0 W/m² | - |
| 1778018097 | 31.11° C | 61% | 974 hPa | - | - | 0 W/m² | - |
| 1778017470 | 32.22° C | 59% | 974 hPa | - | - | 0 W/m² | - |
| 1778016314 | 30.56° C | 63% | 974 hPa | - | - | 0 W/m² | - |
| 1778015689 | 31.11° C | 62% | 974 hPa | - | - | 0 W/m² | - |
| 1778015063 | 31.11° C | 62% | 974 hPa | - | - | 0 W/m² | - |
| 1778014438 | 31.67° C | 60% | 974 hPa | - | - | 0 W/m² | - |
* Rain since midnight (hover to see other rain measurements)
** Current wind speed in m/s (hover to see current wind gust speed)